sensor_id;sensor_type;location;lat;lon;timestamp;temperature;humidity
24744;DHT22;12844;52.110;5.548;2022-10-16T09:41:53;22.10;55.40
24744;DHT22;12844;52.110;5.548;2022-10-16T09:44:28;22.10;55.40
24744;DHT22;12844;52.110;5.548;2022-10-16T09:47:26;22.10;55.40
24744;DHT22;12844;52.110;5.548;2022-10-16T09:49:58;22.10;55.40
24744;DHT22;12844;52.110;5.548;2022-10-16T09:52:27;22.10;55.60
24744;DHT22;12844;52.110;5.548;2022-10-16T09:54:55;22.00;55.60
24744;DHT22;12844;52.110;5.548;2022-10-16T09:57:21;22.10;55.60
24744;DHT22;12844;52.110;5.548;2022-10-16T09:59:54;22.00;55.50
24744;DHT22;12844;52.110;5.548;2022-10-16T10:02:30;22.10;55.60
24744;DHT22;12844;52.110;5.548;2022-10-16T10:04:56;22.10;55.60
24744;DHT22;12844;52.110;5.548;2022-10-16T10:07:27;22.10;55.60
24744;DHT22;12844;52.110;5.548;2022-10-16T10:09:55;22.10;55.60
24744;DHT22;12844;52.110;5.548;2022-10-16T10:12:29;22.10;55.60
24744;DHT22;12844;52.110;5.548;2022-10-16T10:14:58;22.10;55.50
24744;DHT22;12844;52.110;5.548;2022-10-16T10:17:29;22.10;55.60
24744;DHT22;12844;52.110;5.548;2022-10-16T10:22:48;22.10;55.50
24744;DHT22;12844;52.110;5.548;2022-10-16T10:31:09;22.10;55.50
24744;DHT22;12844;52.110;5.548;2022-10-16T10:33:46;22.10;55.50
24744;DHT22;12844;52.110;5.548;2022-10-16T10:44:28;22.00;55.60
24744;DHT22;12844;52.110;5.548;2022-10-16T10:46:56;22.00;55.60
24744;DHT22;12844;52.110;5.548;2022-10-16T10:49:30;22.00;55.70
24744;DHT22;12844;52.110;5.548;2022-10-16T10:52:34;22.00;55.60
24744;DHT22;12844;52.110;5.548;2022-10-16T11:00:30;22.10;55.60
24744;DHT22;12844;52.110;5.548;2022-10-16T11:05:47;22.10;55.60
24744;DHT22;12844;52.110;5.548;2022-10-16T11:08:28;22.10;55.60
24744;DHT22;12844;52.110;5.548;2022-10-16T11:11:07;22.10;55.60
24744;DHT22;12844;52.110;5.548;2022-10-16T11:13:45;22.10;55.60
24744;DHT22;12844;52.110;5.548;2022-10-16T11:18:56;22.10;55.60
24744;DHT22;12844;52.110;5.548;2022-10-16T11:21:24;22.10;55.60
24744;DHT22;12844;52.110;5.548;2022-10-16T11:24:01;22.10;55.60
24744;DHT22;12844;52.110;5.548;2022-10-16T11:26:32;22.10;55.50
24744;DHT22;12844;52.110;5.548;2022-10-16T11:29:02;22.10;55.60
24744;DHT22;12844;52.110;5.548;2022-10-16T11:31:49;22.10;55.60
24744;DHT22;12844;52.110;5.548;2022-10-16T11:34:29;22.20;55.60
24744;DHT22;12844;52.110;5.548;2022-10-16T11:37:20;22.10;55.60
24744;DHT22;12844;52.110;5.548;2022-10-16T11:39:50;22.10;55.60
24744;DHT22;12844;52.110;5.548;2022-10-16T11:42:25;22.10;55.60
24744;DHT22;12844;52.110;5.548;2022-10-16T11:48:07;22.20;55.60
24744;DHT22;12844;52.110;5.548;2022-10-16T11:53:50;22.10;55.60
24744;DHT22;12844;52.110;5.548;2022-10-16T11:56:19;22.20;55.60
24744;DHT22;12844;52.110;5.548;2022-10-16T11:59:05;22.10;55.60
24744;DHT22;12844;52.110;5.548;2022-10-16T12:01:44;22.20;55.60
24744;DHT22;12844;52.110;5.548;2022-10-16T12:04:37;22.10;55.70
24744;DHT22;12844;52.110;5.548;2022-10-16T12:07:14;22.20;55.60
24744;DHT22;12844;52.110;5.548;2022-10-16T12:09:40;22.10;55.60
24744;DHT22;12844;52.110;5.548;2022-10-16T12:15:25;22.20;55.60
24744;DHT22;12844;52.110;5.548;2022-10-16T12:17:51;22.20;55.70
24744;DHT22;12844;52.110;5.548;2022-10-16T12:28:01;22.20;55.70
24744;DHT22;12844;52.110;5.548;2022-10-16T12:30:30;22.20;55.70
24744;DHT22;12844;52.110;5.548;2022-10-16T12:33:05;22.10;55.70
24744;DHT22;12844;52.110;5.548;2022-10-16T12:35:34;22.20;55.70
24744;DHT22;12844;52.110;5.548;2022-10-16T12:38:31;22.20;55.80
24744;DHT22;12844;52.110;5.548;2022-10-16T12:41:05;22.20;55.80
24744;DHT22;12844;52.110;5.548;2022-10-16T12:43:36;22.20;55.80
24744;DHT22;12844;52.110;5.548;2022-10-16T12:59:50;22.20;56.00
24744;DHT22;12844;52.110;5.548;2022-10-16T13:10:25;22.20;55.90
24744;DHT22;12844;52.110;5.548;2022-10-16T13:19:01;22.20;55.70
24744;DHT22;12844;52.110;5.548;2022-10-16T13:21:54;22.20;55.80
24744;DHT22;12844;52.110;5.548;2022-10-16T13:27:17;22.20;55.80
24744;DHT22;12844;52.110;5.548;2022-10-16T13:29:52;22.20;55.90
24744;DHT22;12844;52.110;5.548;2022-10-16T13:32:21;22.20;55.80
24744;DHT22;12844;52.110;5.548;2022-10-16T13:34:48;22.20;55.80
24744;DHT22;12844;52.110;5.548;2022-10-16T13:37:19;22.20;55.80
24744;DHT22;12844;52.110;5.548;2022-10-16T13:39:45;22.20;55.80
24744;DHT22;12844;52.110;5.548;2022-10-16T13:42:23;22.20;55.80
24744;DHT22;12844;52.110;5.548;2022-10-16T13:44:51;22.20;55.80
24744;DHT22;12844;52.110;5.548;2022-10-16T13:47:24;22.20;55.80
24744;DHT22;12844;52.110;5.548;2022-10-16T13:50:03;22.20;55.80
24744;DHT22;12844;52.110;5.548;2022-10-16T13:52:29;22.20;55.80
24744;DHT22;12844;52.110;5.548;2022-10-16T13:54:54;22.20;55.80
24744;DHT22;12844;52.110;5.548;2022-10-16T13:57:23;22.10;55.80
24744;DHT22;12844;52.110;5.548;2022-10-16T13:59:50;22.10;55.80
24744;DHT22;12844;52.110;5.548;2022-10-16T14:02:25;22.20;55.90
24744;DHT22;12844;52.110;5.548;2022-10-16T14:04:53;22.20;55.80
24744;DHT22;12844;52.110;5.548;2022-10-16T14:07:25;22.10;55.80
24744;DHT22;12844;52.110;5.548;2022-10-16T14:09:52;22.10;55.80
24744;DHT22;12844;52.110;5.548;2022-10-16T14:12:18;22.10;55.90
24744;DHT22;12844;52.110;5.548;2022-10-16T14:14:46;22.10;55.90
24744;DHT22;12844;52.110;5.548;2022-10-16T14:17:22;22.10;55.90
24744;DHT22;12844;52.110;5.548;2022-10-16T14:19:51;22.10;55.90
24744;DHT22;12844;52.110;5.548;2022-10-16T14:22:28;22.10;55.90
24744;DHT22;12844;52.110;5.548;2022-10-16T14:24:55;22.10;55.90
24744;DHT22;12844;52.110;5.548;2022-10-16T14:27:33;22.10;56.50
24744;DHT22;12844;52.110;5.548;2022-10-16T14:32:34;22.10;55.90
24744;DHT22;12844;52.110;5.548;2022-10-16T14:34:59;22.10;55.90
24744;DHT22;12844;52.110;5.548;2022-10-16T14:37:27;22.10;55.90
24744;DHT22;12844;52.110;5.548;2022-10-16T14:39:54;22.10;55.90
24744;DHT22;12844;52.110;5.548;2022-10-16T14:42:22;22.10;55.90
24744;DHT22;12844;52.110;5.548;2022-10-16T14:44:50;22.10;55.90
24744;DHT22;12844;52.110;5.548;2022-10-16T14:47:21;22.10;55.90
24744;DHT22;12844;52.110;5.548;2022-10-16T14:49:50;22.10;55.90
24744;DHT22;12844;52.110;5.548;2022-10-16T14:52:16;22.10;55.90
24744;DHT22;12844;52.110;5.548;2022-10-16T14:54:42;22.10;55.90
24744;DHT22;12844;52.110;5.548;2022-10-16T14:57:34;22.10;55.80
24744;DHT22;12844;52.110;5.548;2022-10-16T15:00:02;22.10;55.80
24744;DHT22;12844;52.110;5.548;2022-10-16T15:02:34;22.10;55.90
24744;DHT22;12844;52.110;5.548;2022-10-16T15:05:13;22.10;55.90
24744;DHT22;12844;52.110;5.548;2022-10-16T15:07:39;22.10;55.90
24744;DHT22;12844;52.110;5.548;2022-10-16T15:10:04;22.10;55.90
24744;DHT22;12844;52.110;5.548;2022-10-16T15:12:30;22.10;55.90
24744;DHT22;12844;52.110;5.548;2022-10-16T15:14:55;22.10;55.90
24744;DHT22;12844;52.110;5.548;2022-10-16T15:17:21;22.10;55.90
24744;DHT22;12844;52.110;5.548;2022-10-16T15:19:46;22.10;55.90
24744;DHT22;12844;52.110;5.548;2022-10-16T15:22:12;22.10;55.90
24744;DHT22;12844;52.110;5.548;2022-10-16T15:24:37;22.10;55.90
24744;DHT22;12844;52.110;5.548;2022-10-16T15:27:03;22.10;55.90
24744;DHT22;12844;52.110;5.548;2022-10-16T15:29:29;22.10;55.90
24744;DHT22;12844;52.110;5.548;2022-10-16T15:31:54;22.10;55.90
24744;DHT22;12844;52.110;5.548;2022-10-16T15:34:20;22.10;55.90
24744;DHT22;12844;52.110;5.548;2022-10-16T15:36:45;22.00;55.90
24744;DHT22;12844;52.110;5.548;2022-10-16T15:39:16;22.10;55.90
24744;DHT22;12844;52.110;5.548;2022-10-16T15:41:42;22.10;55.90
24744;DHT22;12844;52.110;5.548;2022-10-16T15:44:08;22.10;55.90
24744;DHT22;12844;52.110;5.548;2022-10-16T15:46:34;22.10;55.90
24744;DHT22;12844;52.110;5.548;2022-10-16T15:49:00;22.00;55.90
24744;DHT22;12844;52.110;5.548;2022-10-16T15:51:26;22.10;56.00
24744;DHT22;12844;52.110;5.548;2022-10-16T15:53:58;22.10;55.90
24744;DHT22;12844;52.110;5.548;2022-10-16T15:56:27;22.10;55.90
24744;DHT22;12844;52.110;5.548;2022-10-16T15:58:54;22.00;55.90
24744;DHT22;12844;52.110;5.548;2022-10-16T16:01:20;22.00;55.90
24744;DHT22;12844;52.110;5.548;2022-10-16T16:03:46;22.00;55.90
24744;DHT22;12844;52.110;5.548;2022-10-16T16:06:13;22.00;56.00
24744;DHT22;12844;52.110;5.548;2022-10-16T16:08:39;22.00;56.00
24744;DHT22;12844;52.110;5.548;2022-10-16T16:11:07;22.00;55.90
24744;DHT22;12844;52.110;5.548;2022-10-16T16:13:33;22.00;56.00
24744;DHT22;12844;52.110;5.548;2022-10-16T16:15:59;22.00;56.00
24744;DHT22;12844;52.110;5.548;2022-10-16T16:18:24;22.00;55.90
24744;DHT22;12844;52.110;5.548;2022-10-16T16:20:51;22.00;56.00
24744;DHT22;12844;52.110;5.548;2022-10-16T16:23:17;22.00;56.00
24744;DHT22;12844;52.110;5.548;2022-10-16T16:25:44;22.00;56.00
24744;DHT22;12844;52.110;5.548;2022-10-16T16:28:10;22.00;56.00
24744;DHT22;12844;52.110;5.548;2022-10-16T16:30:40;22.00;56.00
24744;DHT22;12844;52.110;5.548;2022-10-16T16:33:05;22.00;56.00
24744;DHT22;12844;52.110;5.548;2022-10-16T16:35:31;22.00;56.00
24744;DHT22;12844;52.110;5.548;2022-10-16T16:37:57;21.90;56.00
24744;DHT22;12844;52.110;5.548;2022-10-16T16:40:22;22.00;56.00
24744;DHT22;12844;52.110;5.548;2022-10-16T16:42:48;22.00;56.10
24744;DHT22;12844;52.110;5.548;2022-10-16T16:45:14;21.90;56.00
24744;DHT22;12844;52.110;5.548;2022-10-16T16:47:40;22.00;56.10
24744;DHT22;12844;52.110;5.548;2022-10-16T16:50:05;21.90;56.10
24744;DHT22;12844;52.110;5.548;2022-10-16T16:52:32;21.90;56.00
24744;DHT22;12844;52.110;5.548;2022-10-16T16:54:58;21.90;56.00
24744;DHT22;12844;52.110;5.548;2022-10-16T16:57:23;21.90;56.00
24744;DHT22;12844;52.110;5.548;2022-10-16T16:59:50;21.90;56.10
24744;DHT22;12844;52.110;5.548;2022-10-16T17:02:16;21.90;56.00
24744;DHT22;12844;52.110;5.548;2022-10-16T17:04:42;21.90;56.00
24744;DHT22;12844;52.110;5.548;2022-10-16T17:07:07;21.90;56.00
24744;DHT22;12844;52.110;5.548;2022-10-16T17:09:33;21.90;56.00
24744;DHT22;12844;52.110;5.548;2022-10-16T17:11:59;21.90;56.00
24744;DHT22;12844;52.110;5.548;2022-10-16T17:14:24;21.90;56.00
24744;DHT22;12844;52.110;5.548;2022-10-16T17:16:51;21.90;56.00
24744;DHT22;12844;52.110;5.548;2022-10-16T17:19:19;21.90;56.00
24744;DHT22;12844;52.110;5.548;2022-10-16T17:21:45;21.90;56.00
24744;DHT22;12844;52.110;5.548;2022-10-16T17:24:11;21.90;56.00
24744;DHT22;12844;52.110;5.548;2022-10-16T17:26:36;21.90;56.00
24744;DHT22;12844;52.110;5.548;2022-10-16T17:29:03;21.90;56.00
24744;DHT22;12844;52.110;5.548;2022-10-16T17:31:36;21.90;56.00
24744;DHT22;12844;52.110;5.548;2022-10-16T17:34:04;21.90;55.90
24744;DHT22;12844;52.110;5.548;2022-10-16T17:36:32;21.90;56.00
24744;DHT22;12844;52.110;5.548;2022-10-16T17:38:59;21.90;56.00
24744;DHT22;12844;52.110;5.548;2022-10-16T17:41:28;21.90;56.00
24744;DHT22;12844;52.110;5.548;2022-10-16T17:43:54;21.90;56.00
24744;DHT22;12844;52.110;5.548;2022-10-16T17:46:22;21.80;55.90
24744;DHT22;12844;52.110;5.548;2022-10-16T17:48:49;21.90;56.00
24744;DHT22;12844;52.110;5.548;2022-10-16T17:51:17;21.90;56.00
24744;DHT22;12844;52.110;5.548;2022-10-16T17:53:50;21.90;56.00
24744;DHT22;12844;52.110;5.548;2022-10-16T17:56:17;21.90;56.00
24744;DHT22;12844;52.110;5.548;2022-10-16T17:58:43;21.80;56.00
24744;DHT22;12844;52.110;5.548;2022-10-16T18:01:20;21.80;56.00
24744;DHT22;12844;52.110;5.548;2022-10-16T18:03:50;21.80;55.90
24744;DHT22;12844;52.110;5.548;2022-10-16T18:06:16;21.80;56.00
24744;DHT22;12844;52.110;5.548;2022-10-16T18:08:42;21.80;56.00
24744;DHT22;12844;52.110;5.548;2022-10-16T18:11:08;21.80;56.00
24744;DHT22;12844;52.110;5.548;2022-10-16T18:13:34;21.80;55.90
24744;DHT22;12844;52.110;5.548;2022-10-16T18:16:05;21.80;55.90
24744;DHT22;12844;52.110;5.548;2022-10-16T18:18:31;21.90;55.90
24744;DHT22;12844;52.110;5.548;2022-10-16T18:20:58;21.80;55.90
24744;DHT22;12844;52.110;5.548;2022-10-16T18:23:24;21.80;55.90
24744;DHT22;12844;52.110;5.548;2022-10-16T18:25:50;21.80;55.90
24744;DHT22;12844;52.110;5.548;2022-10-16T18:28:16;21.80;55.90
24744;DHT22;12844;52.110;5.548;2022-10-16T18:30:42;21.80;55.90
24744;DHT22;12844;52.110;5.548;2022-10-16T18:33:07;21.80;55.90
24744;DHT22;12844;52.110;5.548;2022-10-16T18:35:36;21.80;55.90
24744;DHT22;12844;52.110;5.548;2022-10-16T18:38:02;21.80;55.90
24744;DHT22;12844;52.110;5.548;2022-10-16T18:40:28;21.80;55.90
24744;DHT22;12844;52.110;5.548;2022-10-16T18:42:54;21.80;55.90
24744;DHT22;12844;52.110;5.548;2022-10-16T18:45:20;21.80;55.80
24744;DHT22;12844;52.110;5.548;2022-10-16T18:47:46;21.80;55.80
24744;DHT22;12844;52.110;5.548;2022-10-16T18:50:11;21.80;55.80
24744;DHT22;12844;52.110;5.548;2022-10-16T18:52:37;21.80;55.80
24744;DHT22;12844;52.110;5.548;2022-10-16T18:55:04;21.80;55.80
24744;DHT22;12844;52.110;5.548;2022-10-16T18:57:30;21.80;55.80
24744;DHT22;12844;52.110;5.548;2022-10-16T18:59:56;21.80;55.80
24744;DHT22;12844;52.110;5.548;2022-10-16T19:02:22;21.80;55.80
24744;DHT22;12844;52.110;5.548;2022-10-16T19:04:47;21.80;55.80
24744;DHT22;12844;52.110;5.548;2022-10-16T19:07:13;21.80;55.80
24744;DHT22;12844;52.110;5.548;2022-10-16T19:09:40;21.80;55.90
24744;DHT22;12844;52.110;5.548;2022-10-16T19:12:06;21.80;55.80
24744;DHT22;12844;52.110;5.548;2022-10-16T19:14:32;21.80;55.80
24744;DHT22;12844;52.110;5.548;2022-10-16T19:16:58;21.80;55.80
24744;DHT22;12844;52.110;5.548;2022-10-16T19:19:24;21.80;55.80
24744;DHT22;12844;52.110;5.548;2022-10-16T19:21:51;21.80;55.80
24744;DHT22;12844;52.110;5.548;2022-10-16T19:24:22;21.70;55.80
24744;DHT22;12844;52.110;5.548;2022-10-16T19:26:48;21.80;55.90
24744;DHT22;12844;52.110;5.548;2022-10-16T19:29:14;21.80;55.80
24744;DHT22;12844;52.110;5.548;2022-10-16T19:31:40;21.80;55.80
24744;DHT22;12844;52.110;5.548;2022-10-16T19:34:06;21.80;55.80
24744;DHT22;12844;52.110;5.548;2022-10-16T19:36:36;21.80;55.80
24744;DHT22;12844;52.110;5.548;2022-10-16T19:39:13;21.80;55.80
24744;DHT22;12844;52.110;5.548;2022-10-16T19:41:38;21.80;55.80
24744;DHT22;12844;52.110;5.548;2022-10-16T19:44:06;21.80;55.80
24744;DHT22;12844;52.110;5.548;2022-10-16T19:46:33;21.80;55.90
24744;DHT22;12844;52.110;5.548;2022-10-16T19:49:01;21.80;55.80
24744;DHT22;12844;52.110;5.548;2022-10-16T19:51:27;21.80;55.80
24744;DHT22;12844;52.110;5.548;2022-10-16T19:53:56;21.80;55.80
24744;DHT22;12844;52.110;5.548;2022-10-16T19:56:23;21.80;55.80
24744;DHT22;12844;52.110;5.548;2022-10-16T19:58:51;21.80;55.80
24744;DHT22;12844;52.110;5.548;2022-10-16T20:01:17;21.70;55.80
24744;DHT22;12844;52.110;5.548;2022-10-16T20:03:44;21.80;55.80
24744;DHT22;12844;52.110;5.548;2022-10-16T20:06:11;21.80;55.80
24744;DHT22;12844;52.110;5.548;2022-10-16T20:08:38;21.80;55.70
24744;DHT22;12844;52.110;5.548;2022-10-16T20:11:05;21.80;55.70
24744;DHT22;12844;52.110;5.548;2022-10-16T20:13:31;21.80;55.70
24744;DHT22;12844;52.110;5.548;2022-10-16T20:15:57;21.80;55.60
24744;DHT22;12844;52.110;5.548;2022-10-16T20:18:23;21.80;55.70
24744;DHT22;12844;52.110;5.548;2022-10-16T20:20:49;21.80;55.70
24744;DHT22;12844;52.110;5.548;2022-10-16T20:23:18;21.80;55.80
24744;DHT22;12844;52.110;5.548;2022-10-16T20:25:44;21.80;55.80
24744;DHT22;12844;52.110;5.548;2022-10-16T20:28:13;21.80;55.90
24744;DHT22;12844;52.110;5.548;2022-10-16T20:30:42;21.80;55.90
24744;DHT22;12844;52.110;5.548;2022-10-16T20:33:08;21.80;55.90
24744;DHT22;12844;52.110;5.548;2022-10-16T20:35:45;21.80;55.90
24744;DHT22;12844;52.110;5.548;2022-10-16T20:38:12;21.80;56.00
24744;DHT22;12844;52.110;5.548;2022-10-16T20:40:40;21.80;56.00
24744;DHT22;12844;52.110;5.548;2022-10-16T20:43:07;21.80;56.10
24744;DHT22;12844;52.110;5.548;2022-10-16T20:45:35;21.80;56.80
24744;DHT22;12844;52.110;5.548;2022-10-16T20:48:01;21.80;56.20
24744;DHT22;12844;52.110;5.548;2022-10-16T20:50:30;21.80;56.20
24744;DHT22;12844;52.110;5.548;2022-10-16T20:52:57;21.80;56.20
24744;DHT22;12844;52.110;5.548;2022-10-16T20:55:23;21.80;56.20
24744;DHT22;12844;52.110;5.548;2022-10-16T20:57:49;21.80;56.20
24744;DHT22;12844;52.110;5.548;2022-10-16T21:00:15;21.80;56.20
24744;DHT22;12844;52.110;5.548;2022-10-16T21:02:41;21.80;56.20
24744;DHT22;12844;52.110;5.548;2022-10-16T21:05:06;21.80;56.20
24744;DHT22;12844;52.110;5.548;2022-10-16T21:07:32;21.80;56.20
24744;DHT22;12844;52.110;5.548;2022-10-16T21:09:58;21.80;56.30
24744;DHT22;12844;52.110;5.548;2022-10-16T21:12:24;21.80;56.30
24744;DHT22;12844;52.110;5.548;2022-10-16T21:14:50;21.80;56.30
24744;DHT22;12844;52.110;5.548;2022-10-16T21:17:15;21.80;56.30
24744;DHT22;12844;52.110;5.548;2022-10-16T21:19:41;21.80;56.30
24744;DHT22;12844;52.110;5.548;2022-10-16T21:22:07;21.80;56.30
24744;DHT22;12844;52.110;5.548;2022-10-16T21:24:32;21.80;56.40
24744;DHT22;12844;52.110;5.548;2022-10-16T21:26:58;21.80;56.40
24744;DHT22;12844;52.110;5.548;2022-10-16T21:29:23;21.80;56.40
24744;DHT22;12844;52.110;5.548;2022-10-16T21:31:49;21.80;56.30
24744;DHT22;12844;52.110;5.548;2022-10-16T21:34:15;21.80;56.40
24744;DHT22;12844;52.110;5.548;2022-10-16T21:36:41;21.80;56.50
24744;DHT22;12844;52.110;5.548;2022-10-16T21:39:14;21.90;56.50
24744;DHT22;12844;52.110;5.548;2022-10-16T21:41:42;21.90;56.50
24744;DHT22;12844;52.110;5.548;2022-10-16T21:44:08;21.80;56.50
24744;DHT22;12844;52.110;5.548;2022-10-16T21:46:35;21.80;56.40
24744;DHT22;12844;52.110;5.548;2022-10-16T21:49:03;21.80;56.40
24744;DHT22;12844;52.110;5.548;2022-10-16T21:51:38;21.80;56.40
24744;DHT22;12844;52.110;5.548;2022-10-16T21:54:06;21.90;56.40
24744;DHT22;12844;52.110;5.548;2022-10-16T21:56:32;21.80;56.40
24744;DHT22;12844;52.110;5.548;2022-10-16T21:58:58;21.80;56.40
24744;DHT22;12844;52.110;5.548;2022-10-16T22:01:26;21.80;56.40
24744;DHT22;12844;52.110;5.548;2022-10-16T22:03:51;21.80;56.40
24744;DHT22;12844;52.110;5.548;2022-10-16T22:06:20;21.80;56.40
24744;DHT22;12844;52.110;5.548;2022-10-16T22:08:47;21.80;56.30
24744;DHT22;12844;52.110;5.548;2022-10-16T22:11:16;21.80;56.30
24744;DHT22;12844;52.110;5.548;2022-10-16T22:13:42;21.90;56.40
24744;DHT22;12844;52.110;5.548;2022-10-16T22:16:08;21.80;56.40
24744;DHT22;12844;52.110;5.548;2022-10-16T22:18:35;21.90;56.40
24744;DHT22;12844;52.110;5.548;2022-10-16T22:21:01;21.80;56.30
24744;DHT22;12844;52.110;5.548;2022-10-16T22:23:27;21.80;56.30
24744;DHT22;12844;52.110;5.548;2022-10-16T22:25:58;21.80;56.30
24744;DHT22;12844;52.110;5.548;2022-10-16T22:28:24;21.80;56.30
24744;DHT22;12844;52.110;5.548;2022-10-16T22:30:50;21.80;56.30
24744;DHT22;12844;52.110;5.548;2022-10-16T22:33:15;21.80;56.40
24744;DHT22;12844;52.110;5.548;2022-10-16T22:35:41;21.80;56.40
24744;DHT22;12844;52.110;5.548;2022-10-16T22:38:07;21.80;56.40
24744;DHT22;12844;52.110;5.548;2022-10-16T22:40:34;21.80;56.40
24744;DHT22;12844;52.110;5.548;2022-10-16T22:42:59;21.80;56.40
24744;DHT22;12844;52.110;5.548;2022-10-16T22:45:31;21.80;56.40
24744;DHT22;12844;52.110;5.548;2022-10-16T22:47:57;21.80;56.40
24744;DHT22;12844;52.110;5.548;2022-10-16T22:50:23;21.80;56.40
24744;DHT22;12844;52.110;5.548;2022-10-16T22:52:49;21.80;56.40
24744;DHT22;12844;52.110;5.548;2022-10-16T22:55:14;21.80;56.40
24744;DHT22;12844;52.110;5.548;2022-10-16T22:57:40;21.80;56.40
24744;DHT22;12844;52.110;5.548;2022-10-16T23:00:08;21.80;56.40
24744;DHT22;12844;52.110;5.548;2022-10-16T23:02:34;21.80;56.40
24744;DHT22;12844;52.110;5.548;2022-10-16T23:05:00;21.80;56.40
24744;DHT22;12844;52.110;5.548;2022-10-16T23:07:25;21.80;56.40
24744;DHT22;12844;52.110;5.548;2022-10-16T23:09:51;21.80;56.40
24744;DHT22;12844;52.110;5.548;2022-10-16T23:12:16;21.80;56.40
24744;DHT22;12844;52.110;5.548;2022-10-16T23:14:46;21.80;56.40
24744;DHT22;12844;52.110;5.548;2022-10-16T23:17:11;21.80;56.40
24744;DHT22;12844;52.110;5.548;2022-10-16T23:19:37;21.80;56.40
24744;DHT22;12844;52.110;5.548;2022-10-16T23:22:03;21.80;56.40
24744;DHT22;12844;52.110;5.548;2022-10-16T23:24:29;21.80;56.40
24744;DHT22;12844;52.110;5.548;2022-10-16T23:26:55;21.80;56.40
24744;DHT22;12844;52.110;5.548;2022-10-16T23:29:21;21.80;56.40
24744;DHT22;12844;52.110;5.548;2022-10-16T23:31:46;21.80;56.40
24744;DHT22;12844;52.110;5.548;2022-10-16T23:34:12;21.80;56.40
24744;DHT22;12844;52.110;5.548;2022-10-16T23:36:37;21.80;56.40
24744;DHT22;12844;52.110;5.548;2022-10-16T23:39:03;21.80;56.30
24744;DHT22;12844;52.110;5.548;2022-10-16T23:41:28;21.80;56.40
24744;DHT22;12844;52.110;5.548;2022-10-16T23:43:54;21.80;56.40
24744;DHT22;12844;52.110;5.548;2022-10-16T23:46:19;21.80;56.30
24744;DHT22;12844;52.110;5.548;2022-10-16T23:48:45;21.80;56.30
24744;DHT22;12844;52.110;5.548;2022-10-16T23:51:11;21.80;56.40
24744;DHT22;12844;52.110;5.548;2022-10-16T23:53:37;21.80;56.40
24744;DHT22;12844;52.110;5.548;2022-10-16T23:56:03;21.80;56.40
24744;DHT22;12844;52.110;5.548;2022-10-16T23:58:29;21.80;56.40
